sensor_id;sensor_type;location;lat;lon;timestamp;P1;durP1;ratioP1;P2;durP2;ratioP2
46941;SDS011;32676;52.630;4.896;2023-06-04T00:00:56;10.23;;;2.45;;
46941;SDS011;32676;52.630;4.896;2023-06-04T00:03:24;8.82;;;2.50;;
46941;SDS011;32676;52.630;4.896;2023-06-04T00:05:50;6.80;;;2.08;;
46941;SDS011;32676;52.630;4.896;2023-06-04T00:08:17;5.00;;;2.22;;
46941;SDS011;32676;52.630;4.896;2023-06-04T00:10:43;5.70;;;2.88;;
46941;SDS011;32676;52.630;4.896;2023-06-04T00:13:10;7.13;;;2.65;;
46941;SDS011;32676;52.630;4.896;2023-06-04T00:15:37;6.35;;;2.95;;
46941;SDS011;32676;52.630;4.896;2023-06-04T00:18:03;3.90;;;1.75;;
46941;SDS011;32676;52.630;4.896;2023-06-04T00:20:31;4.30;;;2.22;;
46941;SDS011;32676;52.630;4.896;2023-06-04T00:22:58;6.30;;;2.08;;
46941;SDS011;32676;52.630;4.896;2023-06-04T00:25:24;6.22;;;2.53;;
46941;SDS011;32676;52.630;4.896;2023-06-04T00:27:51;14.15;;;2.55;;
46941;SDS011;32676;52.630;4.896;2023-06-04T00:30:17;7.68;;;2.53;;
46941;SDS011;32676;52.630;4.896;2023-06-04T00:32:44;6.18;;;2.60;;
46941;SDS011;32676;52.630;4.896;2023-06-04T00:35:11;5.72;;;2.25;;
46941;SDS011;32676;52.630;4.896;2023-06-04T00:37:39;14.40;;;2.30;;
46941;SDS011;32676;52.630;4.896;2023-06-04T00:40:07;8.55;;;3.38;;
46941;SDS011;32676;52.630;4.896;2023-06-04T00:42:34;9.90;;;2.25;;
46941;SDS011;32676;52.630;4.896;2023-06-04T00:45:00;7.85;;;2.53;;
46941;SDS011;32676;52.630;4.896;2023-06-04T00:47:27;8.63;;;3.03;;
46941;SDS011;32676;52.630;4.896;2023-06-04T00:49:56;5.05;;;2.40;;
46941;SDS011;32676;52.630;4.896;2023-06-04T00:52:23;8.48;;;2.60;;
46941;SDS011;32676;52.630;4.896;2023-06-04T00:54:52;10.20;;;2.95;;
46941;SDS011;32676;52.630;4.896;2023-06-04T00:57:19;10.10;;;3.15;;
46941;SDS011;32676;52.630;4.896;2023-06-04T00:59:47;7.10;;;2.42;;
46941;SDS011;32676;52.630;4.896;2023-06-04T01:02:15;7.35;;;2.50;;
46941;SDS011;32676;52.630;4.896;2023-06-04T01:04:46;12.13;;;2.75;;
46941;SDS011;32676;52.630;4.896;2023-06-04T01:07:18;9.57;;;2.53;;
46941;SDS011;32676;52.630;4.896;2023-06-04T01:09:46;10.23;;;2.67;;
46941;SDS011;32676;52.630;4.896;2023-06-04T01:12:14;9.43;;;2.85;;
46941;SDS011;32676;52.630;4.896;2023-06-04T01:14:40;11.10;;;4.05;;
46941;SDS011;32676;52.630;4.896;2023-06-04T01:17:11;9.60;;;2.95;;
46941;SDS011;32676;52.630;4.896;2023-06-04T01:22:36;7.30;;;2.85;;
46941;SDS011;32676;52.630;4.896;2023-06-04T01:25:13;6.55;;;2.67;;
46941;SDS011;32676;52.630;4.896;2023-06-04T01:27:46;6.90;;;2.65;;
46941;SDS011;32676;52.630;4.896;2023-06-04T01:30:17;7.20;;;3.10;;
46941;SDS011;32676;52.630;4.896;2023-06-04T01:32:45;7.43;;;3.25;;
46941;SDS011;32676;52.630;4.896;2023-06-04T01:35:12;11.30;;;3.20;;
46941;SDS011;32676;52.630;4.896;2023-06-04T01:37:39;8.98;;;3.00;;
46941;SDS011;32676;52.630;4.896;2023-06-04T01:40:06;9.18;;;3.40;;
46941;SDS011;32676;52.630;4.896;2023-06-04T01:42:34;9.85;;;3.63;;
46941;SDS011;32676;52.630;4.896;2023-06-04T01:45:02;12.60;;;4.38;;
46941;SDS011;32676;52.630;4.896;2023-06-04T01:47:29;7.93;;;2.72;;
46941;SDS011;32676;52.630;4.896;2023-06-04T01:49:56;13.40;;;3.35;;
46941;SDS011;32676;52.630;4.896;2023-06-04T01:52:22;6.85;;;2.67;;
46941;SDS011;32676;52.630;4.896;2023-06-04T01:54:49;9.73;;;3.22;;
46941;SDS011;32676;52.630;4.896;2023-06-04T01:57:17;6.72;;;2.97;;
46941;SDS011;32676;52.630;4.896;2023-06-04T01:59:44;8.60;;;2.55;;
46941;SDS011;32676;52.630;4.896;2023-06-04T02:02:12;8.00;;;2.72;;
46941;SDS011;32676;52.630;4.896;2023-06-04T02:04:38;13.35;;;4.07;;
46941;SDS011;32676;52.630;4.896;2023-06-04T02:07:06;7.68;;;3.05;;
46941;SDS011;32676;52.630;4.896;2023-06-04T02:09:33;8.38;;;3.88;;
46941;SDS011;32676;52.630;4.896;2023-06-04T02:12:00;8.38;;;4.35;;
46941;SDS011;32676;52.630;4.896;2023-06-04T02:14:26;9.23;;;3.28;;
46941;SDS011;32676;52.630;4.896;2023-06-04T02:16:53;9.02;;;2.58;;
46941;SDS011;32676;52.630;4.896;2023-06-04T02:19:23;11.65;;;3.63;;
46941;SDS011;32676;52.630;4.896;2023-06-04T02:21:51;10.82;;;3.22;;
46941;SDS011;32676;52.630;4.896;2023-06-04T02:24:18;13.50;;;3.65;;
46941;SDS011;32676;52.630;4.896;2023-06-04T02:26:45;14.13;;;4.10;;
46941;SDS011;32676;52.630;4.896;2023-06-04T02:29:12;11.75;;;3.13;;
46941;SDS011;32676;52.630;4.896;2023-06-04T02:31:38;10.55;;;3.08;;
46941;SDS011;32676;52.630;4.896;2023-06-04T02:34:05;12.02;;;3.70;;
46941;SDS011;32676;52.630;4.896;2023-06-04T02:36:33;16.58;;;3.08;;
46941;SDS011;32676;52.630;4.896;2023-06-04T02:39:00;9.85;;;2.85;;
46941;SDS011;32676;52.630;4.896;2023-06-04T02:41:27;15.90;;;5.38;;
46941;SDS011;32676;52.630;4.896;2023-06-04T02:43:54;9.57;;;3.30;;
46941;SDS011;32676;52.630;4.896;2023-06-04T02:46:21;9.40;;;4.40;;
46941;SDS011;32676;52.630;4.896;2023-06-04T02:48:47;8.85;;;3.00;;
46941;SDS011;32676;52.630;4.896;2023-06-04T02:51:13;16.50;;;5.18;;
46941;SDS011;32676;52.630;4.896;2023-06-04T02:53:41;9.60;;;2.83;;
46941;SDS011;32676;52.630;4.896;2023-06-04T02:56:08;14.43;;;3.58;;
46941;SDS011;32676;52.630;4.896;2023-06-04T02:58:34;5.32;;;2.38;;
46941;SDS011;32676;52.630;4.896;2023-06-04T03:01:05;13.77;;;3.17;;
46941;SDS011;32676;52.630;4.896;2023-06-04T03:03:32;12.80;;;3.05;;
46941;SDS011;32676;52.630;4.896;2023-06-04T03:05:59;6.45;;;2.60;;
46941;SDS011;32676;52.630;4.896;2023-06-04T03:08:27;15.13;;;3.50;;
46941;SDS011;32676;52.630;4.896;2023-06-04T03:10:55;11.38;;;3.13;;
46941;SDS011;32676;52.630;4.896;2023-06-04T03:13:21;13.30;;;3.08;;
46941;SDS011;32676;52.630;4.896;2023-06-04T03:15:48;13.25;;;3.63;;
46941;SDS011;32676;52.630;4.896;2023-06-04T03:18:14;11.75;;;2.97;;
46941;SDS011;32676;52.630;4.896;2023-06-04T03:20:41;10.95;;;2.85;;
46941;SDS011;32676;52.630;4.896;2023-06-04T03:23:07;11.13;;;3.40;;
46941;SDS011;32676;52.630;4.896;2023-06-04T03:25:34;16.17;;;3.35;;
46941;SDS011;32676;52.630;4.896;2023-06-04T03:28:01;7.88;;;2.60;;
46941;SDS011;32676;52.630;4.896;2023-06-04T03:30:28;8.57;;;2.95;;
46941;SDS011;32676;52.630;4.896;2023-06-04T03:32:55;10.25;;;2.97;;
46941;SDS011;32676;52.630;4.896;2023-06-04T03:35:21;16.58;;;2.95;;
46941;SDS011;32676;52.630;4.896;2023-06-04T03:37:48;9.27;;;3.17;;
46941;SDS011;32676;52.630;4.896;2023-06-04T03:40:14;15.05;;;2.58;;
46941;SDS011;32676;52.630;4.896;2023-06-04T03:42:41;5.53;;;2.13;;
46941;SDS011;32676;52.630;4.896;2023-06-04T03:45:09;8.00;;;2.25;;
46941;SDS011;32676;52.630;4.896;2023-06-04T03:47:37;8.45;;;2.65;;
46941;SDS011;32676;52.630;4.896;2023-06-04T03:50:04;14.00;;;3.60;;
46941;SDS011;32676;52.630;4.896;2023-06-04T03:52:31;8.93;;;2.53;;
46941;SDS011;32676;52.630;4.896;2023-06-04T03:54:58;12.98;;;3.45;;
46941;SDS011;32676;52.630;4.896;2023-06-04T03:57:25;12.50;;;3.40;;
46941;SDS011;32676;52.630;4.896;2023-06-04T03:59:51;6.38;;;2.45;;
46941;SDS011;32676;52.630;4.896;2023-06-04T04:02:19;12.20;;;2.60;;
46941;SDS011;32676;52.630;4.896;2023-06-04T04:04:46;11.48;;;2.65;;
46941;SDS011;32676;52.630;4.896;2023-06-04T04:07:13;12.55;;;2.53;;
46941;SDS011;32676;52.630;4.896;2023-06-04T04:09:40;5.30;;;2.10;;
46941;SDS011;32676;52.630;4.896;2023-06-04T04:12:07;15.70;;;2.65;;
46941;SDS011;32676;52.630;4.896;2023-06-04T04:14:33;12.18;;;2.63;;
46941;SDS011;32676;52.630;4.896;2023-06-04T04:17:00;8.43;;;2.15;;
46941;SDS011;32676;52.630;4.896;2023-06-04T04:19:28;10.90;;;2.17;;
46941;SDS011;32676;52.630;4.896;2023-06-04T04:21:54;8.07;;;2.33;;
46941;SDS011;32676;52.630;4.896;2023-06-04T04:24:24;14.35;;;3.22;;
46941;SDS011;32676;52.630;4.896;2023-06-04T04:26:52;7.55;;;2.63;;
46941;SDS011;32676;52.630;4.896;2023-06-04T04:29:19;10.23;;;2.40;;
46941;SDS011;32676;52.630;4.896;2023-06-04T04:31:47;9.32;;;2.00;;
46941;SDS011;32676;52.630;4.896;2023-06-04T04:34:14;10.27;;;2.42;;
46941;SDS011;32676;52.630;4.896;2023-06-04T04:36:43;11.43;;;2.15;;
46941;SDS011;32676;52.630;4.896;2023-06-04T04:39:17;12.15;;;2.30;;
46941;SDS011;32676;52.630;4.896;2023-06-04T04:41:44;11.38;;;2.15;;
46941;SDS011;32676;52.630;4.896;2023-06-04T04:44:10;6.93;;;2.20;;
46941;SDS011;32676;52.630;4.896;2023-06-04T04:46:37;9.07;;;2.40;;
46941;SDS011;32676;52.630;4.896;2023-06-04T04:49:03;12.57;;;2.38;;
46941;SDS011;32676;52.630;4.896;2023-06-04T04:51:30;11.48;;;2.65;;
46941;SDS011;32676;52.630;4.896;2023-06-04T04:53:58;11.75;;;3.60;;
46941;SDS011;32676;52.630;4.896;2023-06-04T04:56:26;10.88;;;2.70;;
46941;SDS011;32676;52.630;4.896;2023-06-04T04:58:52;6.47;;;2.30;;
46941;SDS011;32676;52.630;4.896;2023-06-04T05:01:20;13.18;;;2.47;;
46941;SDS011;32676;52.630;4.896;2023-06-04T05:03:47;11.95;;;2.78;;
46941;SDS011;32676;52.630;4.896;2023-06-04T05:06:14;10.80;;;3.17;;
46941;SDS011;32676;52.630;4.896;2023-06-04T05:08:41;10.13;;;2.38;;
46941;SDS011;32676;52.630;4.896;2023-06-04T05:11:09;18.65;;;2.45;;
46941;SDS011;32676;52.630;4.896;2023-06-04T05:13:35;15.25;;;2.70;;
46941;SDS011;32676;52.630;4.896;2023-06-04T05:16:02;9.10;;;2.40;;
46941;SDS011;32676;52.630;4.896;2023-06-04T05:18:31;11.73;;;2.90;;
46941;SDS011;32676;52.630;4.896;2023-06-04T05:20:58;13.23;;;2.78;;
46941;SDS011;32676;52.630;4.896;2023-06-04T05:23:24;10.65;;;3.05;;
46941;SDS011;32676;52.630;4.896;2023-06-04T05:25:52;9.00;;;2.58;;
46941;SDS011;32676;52.630;4.896;2023-06-04T05:28:20;9.50;;;2.70;;
46941;SDS011;32676;52.630;4.896;2023-06-04T05:30:49;13.20;;;3.25;;
46941;SDS011;32676;52.630;4.896;2023-06-04T05:33:15;11.00;;;2.75;;
46941;SDS011;32676;52.630;4.896;2023-06-04T05:35:43;5.70;;;2.70;;
46941;SDS011;32676;52.630;4.896;2023-06-04T05:38:10;10.05;;;2.90;;
46941;SDS011;32676;52.630;4.896;2023-06-04T05:40:42;11.13;;;2.45;;
46941;SDS011;32676;52.630;4.896;2023-06-04T05:43:08;5.57;;;2.00;;
46941;SDS011;32676;52.630;4.896;2023-06-04T05:45:36;9.77;;;2.38;;
46941;SDS011;32676;52.630;4.896;2023-06-04T05:48:03;12.82;;;1.77;;
46941;SDS011;32676;52.630;4.896;2023-06-04T05:50:31;7.93;;;2.22;;
46941;SDS011;32676;52.630;4.896;2023-06-04T05:52:58;9.15;;;2.08;;
46941;SDS011;32676;52.630;4.896;2023-06-04T05:55:24;11.73;;;2.33;;
46941;SDS011;32676;52.630;4.896;2023-06-04T05:57:51;17.05;;;3.10;;
46941;SDS011;32676;52.630;4.896;2023-06-04T06:00:17;13.68;;;2.38;;
46941;SDS011;32676;52.630;4.896;2023-06-04T06:02:45;7.60;;;2.25;;
46941;SDS011;32676;52.630;4.896;2023-06-04T06:05:14;10.38;;;2.30;;
46941;SDS011;32676;52.630;4.896;2023-06-04T06:07:40;10.57;;;1.83;;
46941;SDS011;32676;52.630;4.896;2023-06-04T06:10:08;12.55;;;2.17;;
46941;SDS011;32676;52.630;4.896;2023-06-04T06:12:34;9.52;;;2.05;;
46941;SDS011;32676;52.630;4.896;2023-06-04T06:15:01;16.83;;;2.60;;
46941;SDS011;32676;52.630;4.896;2023-06-04T06:17:28;15.55;;;2.20;;
46941;SDS011;32676;52.630;4.896;2023-06-04T06:19:55;11.60;;;2.10;;
46941;SDS011;32676;52.630;4.896;2023-06-04T06:22:22;9.02;;;2.33;;
46941;SDS011;32676;52.630;4.896;2023-06-04T06:24:48;9.23;;;2.30;;
46941;SDS011;32676;52.630;4.896;2023-06-04T06:27:15;10.25;;;1.98;;
46941;SDS011;32676;52.630;4.896;2023-06-04T06:29:42;5.60;;;1.45;;
46941;SDS011;32676;52.630;4.896;2023-06-04T06:32:09;10.48;;;2.13;;
46941;SDS011;32676;52.630;4.896;2023-06-04T06:34:36;9.85;;;1.63;;
46941;SDS011;32676;52.630;4.896;2023-06-04T06:37:05;7.95;;;1.98;;
46941;SDS011;32676;52.630;4.896;2023-06-04T06:39:32;9.27;;;2.08;;
46941;SDS011;32676;52.630;4.896;2023-06-04T06:41:59;14.77;;;4.40;;
46941;SDS011;32676;52.630;4.896;2023-06-04T06:44:25;10.10;;;2.35;;
46941;SDS011;32676;52.630;4.896;2023-06-04T06:46:52;7.90;;;2.08;;
46941;SDS011;32676;52.630;4.896;2023-06-04T06:49:18;11.85;;;2.25;;
46941;SDS011;32676;52.630;4.896;2023-06-04T06:51:45;7.97;;;2.45;;
46941;SDS011;32676;52.630;4.896;2023-06-04T06:54:15;9.95;;;1.98;;
46941;SDS011;32676;52.630;4.896;2023-06-04T06:56:41;4.20;;;1.33;;
46941;SDS011;32676;52.630;4.896;2023-06-04T06:59:08;7.13;;;1.45;;
46941;SDS011;32676;52.630;4.896;2023-06-04T07:01:34;4.60;;;1.35;;
46941;SDS011;32676;52.630;4.896;2023-06-04T07:04:01;10.95;;;1.58;;
46941;SDS011;32676;52.630;4.896;2023-06-04T07:06:28;10.00;;;1.85;;
46941;SDS011;32676;52.630;4.896;2023-06-04T07:08:54;10.63;;;1.60;;
46941;SDS011;32676;52.630;4.896;2023-06-04T07:11:22;7.63;;;1.42;;
46941;SDS011;32676;52.630;4.896;2023-06-04T07:13:49;11.38;;;1.60;;
46941;SDS011;32676;52.630;4.896;2023-06-04T07:16:15;10.38;;;1.67;;
46941;SDS011;32676;52.630;4.896;2023-06-04T07:18:42;4.57;;;1.13;;
46941;SDS011;32676;52.630;4.896;2023-06-04T07:21:09;4.22;;;0.80;;
46941;SDS011;32676;52.630;4.896;2023-06-04T07:23:36;10.50;;;1.83;;
46941;SDS011;32676;52.630;4.896;2023-06-04T07:26:02;3.83;;;0.98;;
46941;SDS011;32676;52.630;4.896;2023-06-04T07:28:30;3.83;;;1.10;;
46941;SDS011;32676;52.630;4.896;2023-06-04T07:30:57;6.13;;;0.95;;
46941;SDS011;32676;52.630;4.896;2023-06-04T07:33:23;7.57;;;1.38;;
46941;SDS011;32676;52.630;4.896;2023-06-04T07:35:50;4.57;;;0.65;;
46941;SDS011;32676;52.630;4.896;2023-06-04T07:38:17;11.10;;;2.38;;
46941;SDS011;32676;52.630;4.896;2023-06-04T07:40:44;7.93;;;2.03;;
46941;SDS011;32676;52.630;4.896;2023-06-04T07:43:12;6.03;;;1.27;;
46941;SDS011;32676;52.630;4.896;2023-06-04T07:45:40;7.97;;;1.15;;
46941;SDS011;32676;52.630;4.896;2023-06-04T07:48:08;9.55;;;1.92;;
46941;SDS011;32676;52.630;4.896;2023-06-04T07:50:35;8.18;;;1.10;;
46941;SDS011;32676;52.630;4.896;2023-06-04T07:53:01;4.55;;;1.02;;
46941;SDS011;32676;52.630;4.896;2023-06-04T07:55:28;8.63;;;1.00;;
46941;SDS011;32676;52.630;4.896;2023-06-04T07:57:54;6.90;;;1.17;;
46941;SDS011;32676;52.630;4.896;2023-06-04T08:00:21;3.05;;;0.63;;
46941;SDS011;32676;52.630;4.896;2023-06-04T08:02:49;4.63;;;1.45;;
46941;SDS011;32676;52.630;4.896;2023-06-04T08:05:16;6.00;;;1.38;;
46941;SDS011;32676;52.630;4.896;2023-06-04T08:07:42;9.60;;;1.45;;
46941;SDS011;32676;52.630;4.896;2023-06-04T08:10:09;6.00;;;1.92;;
46941;SDS011;32676;52.630;4.896;2023-06-04T08:12:36;9.75;;;1.50;;
46941;SDS011;32676;52.630;4.896;2023-06-04T08:15:03;7.47;;;2.08;;
46941;SDS011;32676;52.630;4.896;2023-06-04T08:17:30;6.78;;;1.33;;
46941;SDS011;32676;52.630;4.896;2023-06-04T08:19:58;13.45;;;2.30;;
46941;SDS011;32676;52.630;4.896;2023-06-04T08:22:25;6.00;;;1.30;;
46941;SDS011;32676;52.630;4.896;2023-06-04T08:24:52;5.57;;;1.98;;
46941;SDS011;32676;52.630;4.896;2023-06-04T08:27:18;8.25;;;1.40;;
46941;SDS011;32676;52.630;4.896;2023-06-04T08:29:45;5.20;;;1.48;;
46941;SDS011;32676;52.630;4.896;2023-06-04T08:32:11;5.68;;;1.55;;
46941;SDS011;32676;52.630;4.896;2023-06-04T08:34:38;6.45;;;2.08;;
46941;SDS011;32676;52.630;4.896;2023-06-04T08:37:06;6.00;;;1.05;;
46941;SDS011;32676;52.630;4.896;2023-06-04T08:39:33;5.10;;;0.95;;
46941;SDS011;32676;52.630;4.896;2023-06-04T08:42:00;14.45;;;1.40;;
46941;SDS011;32676;52.630;4.896;2023-06-04T08:44:30;3.20;;;0.73;;
46941;SDS011;32676;52.630;4.896;2023-06-04T08:46:57;7.32;;;1.33;;
46941;SDS011;32676;52.630;4.896;2023-06-04T08:49:29;3.03;;;1.00;;
46941;SDS011;32676;52.630;4.896;2023-06-04T08:51:59;4.88;;;0.57;;
46941;SDS011;32676;52.630;4.896;2023-06-04T08:54:27;5.25;;;1.00;;
46941;SDS011;32676;52.630;4.896;2023-06-04T08:56:55;7.10;;;1.85;;
46941;SDS011;32676;52.630;4.896;2023-06-04T08:59:22;7.32;;;1.05;;
46941;SDS011;32676;52.630;4.896;2023-06-04T09:01:50;2.15;;;0.70;;
46941;SDS011;32676;52.630;4.896;2023-06-04T09:04:19;4.68;;;1.13;;
46941;SDS011;32676;52.630;4.896;2023-06-04T09:06:46;4.93;;;0.90;;
46941;SDS011;32676;52.630;4.896;2023-06-04T09:09:14;6.35;;;1.10;;
46941;SDS011;32676;52.630;4.896;2023-06-04T09:11:46;2.28;;;0.60;;
46941;SDS011;32676;52.630;4.896;2023-06-04T09:14:16;4.38;;;1.20;;
46941;SDS011;32676;52.630;4.896;2023-06-04T09:16:44;3.38;;;0.98;;
46941;SDS011;32676;52.630;4.896;2023-06-04T09:19:11;3.47;;;0.80;;
46941;SDS011;32676;52.630;4.896;2023-06-04T09:21:50;3.38;;;0.70;;
46941;SDS011;32676;52.630;4.896;2023-06-04T09:24:19;3.60;;;0.90;;
46941;SDS011;32676;52.630;4.896;2023-06-04T09:26:48;7.53;;;1.27;;
46941;SDS011;32676;52.630;4.896;2023-06-04T09:29:16;5.40;;;0.90;;
46941;SDS011;32676;52.630;4.896;2023-06-04T09:31:44;11.05;;;1.60;;
46941;SDS011;32676;52.630;4.896;2023-06-04T09:34:11;7.97;;;1.25;;
46941;SDS011;32676;52.630;4.896;2023-06-04T09:36:38;8.27;;;0.80;;
46941;SDS011;32676;52.630;4.896;2023-06-04T09:39:14;6.80;;;1.25;;
46941;SDS011;32676;52.630;4.896;2023-06-04T09:41:41;5.40;;;1.08;;
46941;SDS011;32676;52.630;4.896;2023-06-04T09:44:09;6.10;;;0.70;;
46941;SDS011;32676;52.630;4.896;2023-06-04T09:46:37;4.28;;;0.88;;
46941;SDS011;32676;52.630;4.896;2023-06-04T09:49:04;4.28;;;0.90;;
46941;SDS011;32676;52.630;4.896;2023-06-04T09:51:31;3.85;;;0.77;;
46941;SDS011;32676;52.630;4.896;2023-06-04T09:53:59;6.40;;;0.90;;
46941;SDS011;32676;52.630;4.896;2023-06-04T09:56:27;2.72;;;0.70;;
46941;SDS011;32676;52.630;4.896;2023-06-04T09:58:55;4.45;;;0.70;;
46941;SDS011;32676;52.630;4.896;2023-06-04T10:01:27;2.33;;;0.60;;
46941;SDS011;32676;52.630;4.896;2023-06-04T10:03:55;6.18;;;0.70;;
46941;SDS011;32676;52.630;4.896;2023-06-04T10:06:24;4.20;;;0.77;;
46941;SDS011;32676;52.630;4.896;2023-06-04T10:08:53;3.35;;;0.68;;
46941;SDS011;32676;52.630;4.896;2023-06-04T10:11:25;4.25;;;0.82;;
46941;SDS011;32676;52.630;4.896;2023-06-04T10:13:53;2.17;;;0.90;;
46941;SDS011;32676;52.630;4.896;2023-06-04T10:16:23;7.05;;;1.00;;
46941;SDS011;32676;52.630;4.896;2023-06-04T10:18:53;6.43;;;1.30;;
46941;SDS011;32676;52.630;4.896;2023-06-04T10:21:21;7.20;;;1.08;;
46941;SDS011;32676;52.630;4.896;2023-06-04T10:23:48;6.22;;;1.10;;
46941;SDS011;32676;52.630;4.896;2023-06-04T10:26:16;4.30;;;1.13;;
46941;SDS011;32676;52.630;4.896;2023-06-04T10:28:43;4.30;;;0.60;;
46941;SDS011;32676;52.630;4.896;2023-06-04T10:31:09;6.32;;;0.90;;
46941;SDS011;32676;52.630;4.896;2023-06-04T10:33:38;4.65;;;0.90;;
46941;SDS011;32676;52.630;4.896;2023-06-04T10:36:15;9.07;;;1.08;;
46941;SDS011;32676;52.630;4.896;2023-06-04T10:38:44;4.88;;;0.90;;
46941;SDS011;32676;52.630;4.896;2023-06-04T10:41:12;3.25;;;0.80;;
46941;SDS011;32676;52.630;4.896;2023-06-04T10:43:39;5.85;;;1.33;;
46941;SDS011;32676;52.630;4.896;2023-06-04T10:46:11;11.65;;;1.73;;
46941;SDS011;32676;52.630;4.896;2023-06-04T10:48:46;4.25;;;0.93;;
46941;SDS011;32676;52.630;4.896;2023-06-04T10:51:13;3.55;;;0.95;;
46941;SDS011;32676;52.630;4.896;2023-06-04T10:53:40;3.50;;;0.93;;
46941;SDS011;32676;52.630;4.896;2023-06-04T10:56:07;7.95;;;1.02;;
46941;SDS011;32676;52.630;4.896;2023-06-04T10:58:33;3.40;;;1.00;;
46941;SDS011;32676;52.630;4.896;2023-06-04T11:01:00;3.80;;;1.50;;
46941;SDS011;32676;52.630;4.896;2023-06-04T11:03:34;5.35;;;1.00;;
46941;SDS011;32676;52.630;4.896;2023-06-04T11:06:13;5.75;;;0.80;;
46941;SDS011;32676;52.630;4.896;2023-06-04T11:08:41;13.98;;;1.58;;
46941;SDS011;32676;52.630;4.896;2023-06-04T11:11:10;9.07;;;1.27;;
46941;SDS011;32676;52.630;4.896;2023-06-04T11:13:37;8.07;;;1.40;;
46941;SDS011;32676;52.630;4.896;2023-06-04T11:16:05;6.25;;;1.35;;
46941;SDS011;32676;52.630;4.896;2023-06-04T11:18:41;3.80;;;0.95;;
46941;SDS011;32676;52.630;4.896;2023-06-04T11:21:08;11.38;;;1.02;;
46941;SDS011;32676;52.630;4.896;2023-06-04T11:23:36;3.28;;;1.17;;
46941;SDS011;32676;52.630;4.896;2023-06-04T11:26:03;4.13;;;0.82;;
46941;SDS011;32676;52.630;4.896;2023-06-04T11:28:29;7.10;;;1.02;;
46941;SDS011;32676;52.630;4.896;2023-06-04T11:30:56;3.05;;;0.80;;
46941;SDS011;32676;52.630;4.896;2023-06-04T11:33:23;2.45;;;0.98;;
46941;SDS011;32676;52.630;4.896;2023-06-04T11:35:50;10.88;;;1.85;;
46941;SDS011;32676;52.630;4.896;2023-06-04T11:38:18;4.90;;;1.25;;
46941;SDS011;32676;52.630;4.896;2023-06-04T11:40:53;9.45;;;1.10;;
46941;SDS011;32676;52.630;4.896;2023-06-04T11:43:21;4.85;;;0.70;;
46941;SDS011;32676;52.630;4.896;2023-06-04T11:45:48;6.35;;;1.17;;
46941;SDS011;32676;52.630;4.896;2023-06-04T11:48:14;4.57;;;0.93;;
46941;SDS011;32676;52.630;4.896;2023-06-04T11:50:41;7.68;;;1.30;;
46941;SDS011;32676;52.630;4.896;2023-06-04T11:53:07;6.53;;;1.83;;
46941;SDS011;32676;52.630;4.896;2023-06-04T11:55:35;4.10;;;1.40;;
46941;SDS011;32676;52.630;4.896;2023-06-04T11:58:02;4.40;;;0.82;;
46941;SDS011;32676;52.630;4.896;2023-06-04T12:00:29;8.20;;;1.35;;
46941;SDS011;32676;52.630;4.896;2023-06-04T12:02:55;11.02;;;2.25;;
46941;SDS011;32676;52.630;4.896;2023-06-04T12:05:27;5.00;;;1.38;;
46941;SDS011;32676;52.630;4.896;2023-06-04T12:08:03;2.55;;;0.93;;
46941;SDS011;32676;52.630;4.896;2023-06-04T12:10:36;8.55;;;1.38;;
46941;SDS011;32676;52.630;4.896;2023-06-04T12:13:04;10.05;;;1.48;;
46941;SDS011;32676;52.630;4.896;2023-06-04T12:15:31;3.30;;;0.75;;
46941;SDS011;32676;52.630;4.896;2023-06-04T12:17:57;2.90;;;0.93;;
46941;SDS011;32676;52.630;4.896;2023-06-04T12:20:31;4.43;;;1.05;;
46941;SDS011;32676;52.630;4.896;2023-06-04T12:22:59;8.07;;;2.13;;
46941;SDS011;32676;52.630;4.896;2023-06-04T12:25:26;6.38;;;1.10;;
46941;SDS011;32676;52.630;4.896;2023-06-04T12:27:56;4.90;;;0.82;;
46941;SDS011;32676;52.630;4.896;2023-06-04T12:30:22;3.38;;;0.90;;
46941;SDS011;32676;52.630;4.896;2023-06-04T12:32:49;3.95;;;0.88;;
46941;SDS011;32676;52.630;4.896;2023-06-04T12:35:16;5.45;;;1.40;;
46941;SDS011;32676;52.630;4.896;2023-06-04T12:37:43;6.55;;;1.08;;
46941;SDS011;32676;52.630;4.896;2023-06-04T12:40:09;4.25;;;0.95;;
46941;SDS011;32676;52.630;4.896;2023-06-04T12:42:36;5.68;;;1.02;;
46941;SDS011;32676;52.630;4.896;2023-06-04T12:45:05;2.75;;;0.82;;
46941;SDS011;32676;52.630;4.896;2023-06-04T12:47:32;7.85;;;1.10;;
46941;SDS011;32676;52.630;4.896;2023-06-04T12:49:59;5.25;;;1.13;;
46941;SDS011;32676;52.630;4.896;2023-06-04T12:52:25;4.88;;;1.92;;
46941;SDS011;32676;52.630;4.896;2023-06-04T12:54:52;2.88;;;0.90;;
46941;SDS011;32676;52.630;4.896;2023-06-04T12:57:18;3.65;;;1.13;;
46941;SDS011;32676;52.630;4.896;2023-06-04T12:59:45;6.38;;;1.13;;
46941;SDS011;32676;52.630;4.896;2023-06-04T13:02:13;6.53;;;1.35;;
46941;SDS011;32676;52.630;4.896;2023-06-04T13:04:39;12.75;;;1.50;;
46941;SDS011;32676;52.630;4.896;2023-06-04T13:07:09;3.97;;;0.90;;
46941;SDS011;32676;52.630;4.896;2023-06-04T13:09:36;7.65;;;1.20;;
46941;SDS011;32676;52.630;4.896;2023-06-04T13:12:02;5.78;;;2.42;;
46941;SDS011;32676;52.630;4.896;2023-06-04T13:14:31;7.35;;;1.13;;
46941;SDS011;32676;52.630;4.896;2023-06-04T13:16:58;6.18;;;1.52;;
46941;SDS011;32676;52.630;4.896;2023-06-04T13:19:26;4.70;;;0.90;;
46941;SDS011;32676;52.630;4.896;2023-06-04T13:21:53;7.78;;;1.00;;
46941;SDS011;32676;52.630;4.896;2023-06-04T13:24:19;6.50;;;1.27;;
46941;SDS011;32676;52.630;4.896;2023-06-04T13:26:46;3.65;;;1.02;;
46941;SDS011;32676;52.630;4.896;2023-06-04T13:29:12;5.63;;;1.00;;
46941;SDS011;32676;52.630;4.896;2023-06-04T13:31:41;5.68;;;1.10;;
46941;SDS011;32676;52.630;4.896;2023-06-04T13:34:07;6.75;;;1.20;;
46941;SDS011;32676;52.630;4.896;2023-06-04T13:36:35;4.95;;;0.90;;
46941;SDS011;32676;52.630;4.896;2023-06-04T13:39:02;7.60;;;1.63;;
46941;SDS011;32676;52.630;4.896;2023-06-04T13:41:29;6.30;;;1.20;;
46941;SDS011;32676;52.630;4.896;2023-06-04T13:43:55;4.80;;;1.42;;
46941;SDS011;32676;52.630;4.896;2023-06-04T13:46:22;5.25;;;1.10;;
46941;SDS011;32676;52.630;4.896;2023-06-04T13:48:48;6.95;;;1.15;;
46941;SDS011;32676;52.630;4.896;2023-06-04T13:51:15;6.03;;;1.35;;
46941;SDS011;32676;52.630;4.896;2023-06-04T13:53:42;5.82;;;1.50;;
46941;SDS011;32676;52.630;4.896;2023-06-04T13:56:09;3.80;;;1.25;;
46941;SDS011;32676;52.630;4.896;2023-06-04T13:58:35;3.55;;;1.02;;
46941;SDS011;32676;52.630;4.896;2023-06-04T14:01:02;8.73;;;1.13;;
46941;SDS011;32676;52.630;4.896;2023-06-04T14:03:28;7.55;;;1.35;;
46941;SDS011;32676;52.630;4.896;2023-06-04T14:05:55;7.05;;;1.70;;
46941;SDS011;32676;52.630;4.896;2023-06-04T14:08:21;2.63;;;0.90;;
46941;SDS011;32676;52.630;4.896;2023-06-04T14:10:49;6.40;;;1.35;;
46941;SDS011;32676;52.630;4.896;2023-06-04T14:13:17;5.05;;;1.20;;
46941;SDS011;32676;52.630;4.896;2023-06-04T14:15:43;7.20;;;1.33;;
46941;SDS011;32676;52.630;4.896;2023-06-04T14:18:09;4.93;;;1.48;;
46941;SDS011;32676;52.630;4.896;2023-06-04T14:20:36;4.55;;;1.35;;
46941;SDS011;32676;52.630;4.896;2023-06-04T14:23:02;7.40;;;1.45;;
46941;SDS011;32676;52.630;4.896;2023-06-04T14:25:29;5.68;;;1.50;;
46941;SDS011;32676;52.630;4.896;2023-06-04T14:27:59;8.57;;;1.50;;
46941;SDS011;32676;52.630;4.896;2023-06-04T14:30:25;5.95;;;1.60;;
46941;SDS011;32676;52.630;4.896;2023-06-04T14:32:51;10.50;;;1.13;;
46941;SDS011;32676;52.630;4.896;2023-06-04T14:35:18;8.23;;;1.30;;
46941;SDS011;32676;52.630;4.896;2023-06-04T14:37:45;5.10;;;1.25;;
46941;SDS011;32676;52.630;4.896;2023-06-04T14:40:11;8.23;;;1.95;;
46941;SDS011;32676;52.630;4.896;2023-06-04T14:42:37;40.05;;;2.65;;
46941;SDS011;32676;52.630;4.896;2023-06-04T14:45:06;3.00;;;1.02;;
46941;SDS011;32676;52.630;4.896;2023-06-04T14:47:33;5.82;;;1.50;;